Time;durP1;ratioP1;P1;durP2;ratioP2;P2;SDS_P1;SDS_P2;PMS_P1;PMS_P2;Temp;Humidity;BMP_temperature;BMP_pressure;BME280_temperature;BME280_humidity;BME280_pressure;Samples;Min_cycle;Max_cycle;Signal;HPM_P1;HPM_P2
2022/09/19 00:01:36;;;;;;;4.47;1.70;;;;;;;13.53;74.87;100462.09;5052597;28;20033;-71
2022/09/19 00:04:07;;;;;;;5.13;1.80;;;;;;;13.49;74.05;100452.50;4935800;29;20050;-71
2022/09/19 00:06:35;;;;;;;5.60;1.67;;;;;;;13.49;74.45;100455.97;4952039;29;20035;-73
2022/09/19 00:09:03;;;;;;;3.67;1.55;;;;;;;13.18;73.91;100425.75;4951533;29;20057;-72
2022/09/19 00:11:28;;;;;;;2.85;1.70;;;;;;;13.36;74.48;100451.28;4951954;29;20412;-75
2022/09/19 00:13:57;;;;;;;3.22;1.80;;;;;;;13.39;75.48;100462.63;4950921;28;20031;-74
2022/09/19 00:16:31;;;;;;;2.75;1.70;;;;;;;13.30;74.65;100457.19;4951798;28;20042;-71
2022/09/19 00:18:59;;;;;;;5.43;1.73;;;;;;;13.30;75.37;100459.78;4951709;28;20039;-72
2022/09/19 00:21:31;;;;;;;2.78;1.70;;;;;;;12.85;75.56;100390.38;4951765;29;20039;-72
2022/09/19 00:26:41;;;;;;;4.10;1.60;;;;;;;13.08;74.91;100458.34;4951806;29;20099;-71
2022/09/19 00:29:09;;;;;;;4.15;1.92;;;;;;;13.10;74.77;100459.28;4951560;29;20039;-74
2022/09/19 00:31:35;;;;;;;4.30;1.52;;;;;;;13.05;74.75;100460.88;4951558;29;20027;-72
2022/09/19 00:34:03;;;;;;;1.98;1.63;;;;;;;13.08;74.31;100463.53;4951135;28;20623;-71
2022/09/19 00:36:29;;;;;;;3.33;1.50;;;;;;;13.11;74.44;100459.31;4951420;28;20180;-74
2022/09/19 00:38:55;;;;;;;2.80;1.80;;;;;;;13.13;74.93;100455.88;4951459;29;20063;-73
2022/09/19 00:41:26;;;;;;;2.20;1.63;;;;;;;13.13;74.58;100445.50;5025420;28;20139;-72
2022/09/19 00:44:05;;;;;;;3.85;2.00;;;;;;;13.15;75.18;100459.41;5051820;28;20063;-74
2022/09/19 00:46:34;;;;;;;2.78;1.60;;;;;;;13.19;75.36;100456.03;5051464;28;20048;-73
2022/09/19 00:49:09;;;;;;;3.08;1.40;;;;;;;12.97;75.89;100411.41;5051743;28;20098;-71
2022/09/19 00:51:40;;;;;;;4.60;1.80;;;;;;;13.18;76.35;100449.97;5051667;28;20036;-72
2022/09/19 00:54:15;;;;;;;5.90;2.45;;;;;;;13.05;75.42;100448.78;5051513;28;20025;-71
2022/09/19 00:56:45;;;;;;;3.38;1.63;;;;;;;13.07;75.50;100460.06;5051634;28;20391;-73
2022/09/19 00:59:12;;;;;;;3.75;2.00;;;;;;;13.02;76.61;100453.00;5051195;28;20029;-74
2022/09/19 01:01:38;;;;;;;3.42;1.70;;;;;;;13.05;76.50;100456.53;5051423;28;20403;-74
2022/09/19 01:04:17;;;;;;;2.33;1.70;;;;;;;13.15;76.71;100460.25;5051462;28;20025;-72
2022/09/19 01:07:14;;;;;;;2.58;1.58;;;;;;;12.98;75.10;100451.16;5051415;28;20036;-74
2022/09/19 01:09:39;;;;;;;3.20;1.63;;;;;;;12.95;76.25;100467.50;5050945;28;20036;-75
2022/09/19 01:12:31;;;;;;;2.38;1.70;;;;;;;12.61;76.63;100467.44;5051201;28;20024;-77
2022/09/19 01:15:09;;;;;;;3.28;1.65;;;;;;;12.43;76.69;100466.91;5051158;28;20037;-71
2022/09/19 01:17:46;;;;;;;4.38;1.80;;;;;;;12.01;76.11;100385.44;5051039;28;20380;-74
2022/09/19 01:20:29;;;;;;;5.43;1.70;;;;;;;12.50;75.86;100458.50;5051019;28;20032;-73
2022/09/19 01:23:19;;;;;;;4.93;1.83;;;;;;;12.33;76.88;100450.22;5051167;28;20395;-72
2022/09/19 01:26:06;;;;;;;2.92;1.67;;;;;;;12.25;77.81;100454.28;5050992;28;20035;-76
2022/09/19 01:28:47;;;;;;;2.50;1.80;;;;;;;12.06;78.89;100450.28;5051277;28;20372;-75
2022/09/19 01:31:27;;;;;;;4.88;2.53;;;;;;;12.06;79.24;100456.34;5050693;28;20021;-73
2022/09/19 01:34:12;;;;;;;4.97;2.22;;;;;;;12.17;78.81;100448.88;5048900;28;20025;-72
2022/09/19 01:36:44;;;;;;;2.33;1.70;;;;;;;12.28;77.40;100456.97;5050636;28;20028;-78
2022/09/19 01:39:11;;;;;;;3.05;1.50;;;;;;;12.35;76.90;100447.66;5050823;28;20194;-73
2022/09/19 01:41:37;;;;;;;2.95;1.40;;;;;;;12.40;78.02;100453.84;5050328;28;20053;-75
2022/09/19 01:44:08;;;;;;;2.45;1.50;;;;;;;12.17;76.93;100422.13;5050449;28;20029;-71
2022/09/19 01:47:19;;;;;;;2.97;1.40;;;;;;;12.19;76.06;100441.19;5050660;28;20029;-72
2022/09/19 01:50:07;;;;;;;2.38;1.60;;;;;;;12.14;76.20;100448.81;4950120;29;20043;-73
2022/09/19 01:52:49;;;;;;;2.72;1.85;;;;;;;12.11;77.70;100453.88;4950245;29;20038;-77
2022/09/19 01:55:45;;;;;;;2.40;1.40;;;;;;;12.07;78.30;100446.84;4950100;28;20152;-77
2022/09/19 01:58:20;;;;;;;3.53;1.67;;;;;;;11.88;78.94;100451.44;4950039;29;20073;-76
2022/09/19 02:01:33;;;;;;;1.98;1.52;;;;;;;11.87;79.85;100447.09;4950092;29;20549;-76
2022/09/19 02:04:45;;;;;;;2.13;1.65;;;;;;;11.83;79.77;100447.81;4893084;29;20052;-74
2022/09/19 02:07:21;;;;;;;3.65;1.88;;;;;;;11.86;78.70;100455.66;4855836;29;20050;-70
2022/09/19 02:10:05;;;;;;;6.30;1.80;;;;;;;11.86;78.38;100459.97;4855612;29;20033;-70
2022/09/19 02:12:35;;;;;;;3.53;1.80;;;;;;;11.81;79.65;100454.66;4855825;29;20540;-73
2022/09/19 02:15:03;;;;;;;3.33;1.70;;;;;;;11.73;79.94;100445.78;4855740;29;20037;-74
2022/09/19 02:17:44;;;;;;;4.95;1.80;;;;;;;11.71;79.95;100453.47;4855655;29;20038;-72
2022/09/19 02:20:15;;;;;;;7.57;2.03;;;;;;;11.74;79.09;100445.81;4855774;29;20045;-74
2022/09/19 02:22:47;;;;;;;3.60;1.70;;;;;;;11.78;78.80;100442.50;4855764;29;20029;-74
2022/09/19 02:25:18;;;;;;;3.28;1.60;;;;;;;11.57;77.24;100415.97;4871336;29;20051;-73
2022/09/19 02:27:49;;;;;;;2.67;1.40;;;;;;;11.69;76.59;100465.50;4930691;29;20074;-72
2022/09/19 02:30:18;;;;;;;2.45;1.75;;;;;;;11.69;78.52;100456.84;4930375;29;20035;-70
2022/09/19 02:32:47;;;;;;;5.15;2.90;;;;;;;11.67;79.15;100453.34;4930502;29;20036;-74
2022/09/19 02:35:14;;;;;;;4.20;2.40;;;;;;;11.52;78.68;100428.75;4930439;29;20934;-74
2022/09/19 02:37:46;;;;;;;5.10;2.00;;;;;;;11.37;80.07;100462.72;4986421;28;20094;-70
2022/09/19 02:40:50;;;;;;;5.38;1.92;;;;;;;11.29;81.14;100471.91;5054266;28;20025;-71
2022/09/19 02:43:36;;;;;;;4.00;2.00;;;;;;;11.34;82.27;100475.56;4953471;29;20058;-70
2022/09/19 02:46:11;;;;;;;4.03;2.42;;;;;;;11.40;79.48;100470.59;4953490;29;20554;-72
2022/09/19 02:48:46;;;;;;;3.40;2.50;;;;;;;11.40;78.74;100470.59;4953525;28;20043;-71
2022/09/19 02:51:46;;;;;;;4.22;2.50;;;;;;;11.49;79.18;100473.47;4953344;28;20035;-74
2022/09/19 02:54:19;;;;;;;5.47;2.13;;;;;;;11.29;80.46;100459.00;4896162;29;20124;-77
2022/09/19 02:56:48;;;;;;;3.08;2.17;;;;;;;11.35;81.01;100479.00;4896280;29;20127;-73
2022/09/19 02:59:23;;;;;;;5.57;2.33;;;;;;;11.33;81.57;100466.91;4880903;29;20080;-71
2022/09/19 03:01:54;;;;;;;5.95;2.10;;;;;;;11.53;81.39;100473.59;4896167;29;20072;-70
2022/09/19 03:04:28;;;;;;;6.07;2.05;;;;;;;11.68;80.52;100479.25;4896075;29;20055;-72
2022/09/19 03:07:14;;;;;;;4.20;2.08;;;;;;;11.86;79.92;100485.84;4895991;29;20037;-71
2022/09/19 03:09:46;;;;;;;3.80;2.03;;;;;;;11.82;79.58;100485.75;4896008;29;20574;-69
2022/09/19 03:12:20;;;;;;;5.22;2.00;;;;;;;11.65;78.66;100458.44;4895227;29;20044;-73
2022/09/19 03:14:49;;;;;;;4.65;2.30;;;;;;;11.80;79.07;100487.41;4896498;29;20087;-73
2022/09/19 03:17:17;;;;;;;3.17;2.17;;;;;;;11.59;80.10;100485.00;4895871;29;20053;-73
2022/09/19 03:19:47;;;;;;;3.30;2.20;;;;;;;11.53;80.81;100478.75;4916241;28;20043;-73
2022/09/19 03:22:13;;;;;;;3.80;2.10;;;;;;;11.63;80.22;100488.56;4972253;28;20413;-71
2022/09/19 03:24:39;;;;;;;3.90;2.00;;;;;;;11.61;79.91;100485.94;4971912;28;20073;-71
2022/09/19 03:27:05;;;;;;;6.85;1.90;;;;;;;11.58;80.19;100482.38;4971944;28;20104;-71
2022/09/19 03:29:30;;;;;;;4.05;1.90;;;;;;;11.58;80.29;100482.38;4972085;28;20525;-71
2022/09/19 03:31:56;;;;;;;4.43;2.53;;;;;;;11.38;79.93;100489.47;5048820;28;20045;-73
2022/09/19 03:34:21;;;;;;;4.22;2.10;;;;;;;11.20;80.67;100500.03;5053097;28;20033;-77
2022/09/19 03:36:47;;;;;;;4.07;2.30;;;;;;;11.24;80.14;100494.13;5053082;28;20036;-74
2022/09/19 03:39:13;;;;;;;5.30;2.65;;;;;;;11.01;81.01;100499.38;5052964;28;20029;-76
2022/09/19 03:41:38;;;;;;;3.42;2.28;;;;;;;10.89;82.07;100498.94;5052750;28;20047;-71
2022/09/19 03:44:04;;;;;;;4.05;2.40;;;;;;;10.88;82.39;100495.50;5052872;28;20094;-70
2022/09/19 03:46:31;;;;;;;4.07;2.30;;;;;;;10.90;82.58;100509.31;5053064;28;20032;-77
2022/09/19 03:48:57;;;;;;;4.88;2.20;;;;;;;10.70;82.64;100471.59;5051356;28;20029;-71
2022/09/19 03:51:23;;;;;;;3.97;1.88;;;;;;;10.90;82.54;100496.41;5001172;28;20037;-73
2022/09/19 03:53:48;;;;;;;4.90;2.38;;;;;;;10.99;81.96;100499.34;5052764;28;20059;-74
2022/09/19 03:56:16;;;;;;;4.50;2.15;;;;;;;11.03;81.81;100500.31;5052464;28;20025;-71
2022/09/19 03:58:42;;;;;;;5.75;2.00;;;;;;;11.07;81.94;100504.78;5001531;28;20045;-70
2022/09/19 04:01:08;;;;;;;2.85;2.03;;;;;;;11.14;81.70;100501.59;5052199;28;20123;-75
2022/09/19 04:03:37;;;;;;;2.78;1.95;;;;;;;11.14;81.40;100506.75;5052032;28;20098;-73
2022/09/19 04:06:04;;;;;;;4.68;2.00;;;;;;;10.86;81.14;100463.56;5049423;28;20032;-73
2022/09/19 04:08:30;;;;;;;4.93;2.20;;;;;;;10.79;81.53;100459.88;5052525;28;20021;-71
2022/09/19 04:10:56;;;;;;;4.43;2.40;;;;;;;10.92;81.46;100499.94;5015736;28;20045;-72
2022/09/19 04:13:22;;;;;;;1.98;1.75;;;;;;;10.87;81.66;100505.78;5049173;28;20090;-72
2022/09/19 04:15:49;;;;;;;5.30;2.42;;;;;;;10.83;82.24;100492.72;5052164;28;20025;-73
2022/09/19 04:18:15;;;;;;;5.05;2.40;;;;;;;10.89;81.67;100478.28;5051787;28;20025;-73
2022/09/19 04:20:41;;;;;;;2.75;1.92;;;;;;;10.97;81.65;100505.28;5052034;28;20514;-72
2022/09/19 04:23:07;;;;;;;3.10;1.90;;;;;;;10.96;81.92;100494.03;5051944;28;20025;-74
2022/09/19 04:25:35;;;;;;;7.70;2.30;;;;;;;10.88;81.78;100480.00;5051398;28;20040;-78
2022/09/19 04:28:05;;;;;;;2.95;1.75;;;;;;;11.02;81.60;100516.66;5052018;28;20098;-75
2022/09/19 04:30:32;;;;;;;3.13;2.00;;;;;;;10.94;81.64;100510.31;5051672;28;20454;-75
2022/09/19 04:32:58;;;;;;;9.60;2.00;;;;;;;10.86;82.42;100506.59;5051589;28;20462;-73
2022/09/19 04:35:24;;;;;;;8.00;2.47;;;;;;;10.91;82.27;100518.84;5052096;28;20028;-72
2022/09/19 04:37:49;;;;;;;4.25;2.08;;;;;;;10.74;82.15;100525.97;5033913;28;20149;-67
2022/09/19 04:40:15;;;;;;;4.13;1.90;;;;;;;10.64;83.01;100522.19;5051581;28;20535;-69
2022/09/19 04:42:41;;;;;;;8.27;2.10;;;;;;;10.58;83.50;100511.63;5052112;28;20522;-68
2022/09/19 04:45:07;;;;;;;6.93;2.15;;;;;;;10.42;84.57;100524.75;5051627;28;20086;-71
2022/09/19 04:47:35;;;;;;;5.32;2.00;;;;;;;10.39;85.29;100520.34;5051699;28;20029;-71
2022/09/19 04:50:00;;;;;;;5.35;2.35;;;;;;;10.30;85.29;100520.84;5051316;28;20129;-68
2022/09/19 04:52:26;;;;;;;5.30;2.05;;;;;;;10.35;85.44;100524.50;5051909;28;20079;-75
2022/09/19 04:54:54;;;;;;;2.80;1.85;;;;;;;10.37;85.23;100529.75;5051784;28;20116;-68
2022/09/19 04:57:20;;;;;;;4.57;2.33;;;;;;;10.24;85.52;100518.00;5047282;28;20033;-72
2022/09/19 04:59:46;;;;;;;5.95;2.13;;;;;;;9.95;86.84;100489.38;5041378;28;20025;-71
2022/09/19 05:02:12;;;;;;;2.88;2.03;;;;;;;10.28;87.02;100527.66;5046351;28;20025;-74
2022/09/19 05:04:41;;;;;;;3.38;2.05;;;;;;;10.23;87.54;100536.03;5045428;28;20033;-72
2022/09/19 05:07:06;;;;;;;4.68;2.10;;;;;;;10.13;88.55;100530.50;5047131;28;20044;-71
2022/09/19 05:09:32;;;;;;;3.63;2.15;;;;;;;10.27;88.76;100537.88;5049640;28;20036;-69
2022/09/19 05:11:57;;;;;;;6.20;1.90;;;;;;;10.54;88.38;100521.75;5048044;28;20025;-73
2022/09/19 05:14:25;;;;;;;5.43;2.65;;;;;;;10.67;87.49;100524.84;5034681;28;20022;-75
2022/09/19 05:16:51;;;;;;;4.50;2.33;;;;;;;10.76;87.13;100537.22;5039284;28;20036;-78
2022/09/19 05:19:17;;;;;;;3.53;2.00;;;;;;;10.85;86.76;100528.94;5048479;28;20033;-72
2022/09/19 05:21:44;;;;;;;4.75;2.03;;;;;;;11.03;86.89;100544.25;5049801;28;20070;-66
2022/09/19 05:24:10;;;;;;;4.95;2.33;;;;;;;11.11;86.87;100524.72;5049772;28;20082;-68
2022/09/19 05:26:37;;;;;;;4.47;2.80;;;;;;;11.30;86.73;100526.25;5049634;28;20441;-70
2022/09/19 05:29:02;;;;;;;4.35;2.05;;;;;;;11.44;85.87;100529.31;5030192;28;20044;-63
2022/09/19 05:31:28;;;;;;;3.10;1.90;;;;;;;11.55;85.75;100524.53;5049921;28;20024;-70
2022/09/19 05:33:53;;;;;;;3.95;2.10;;;;;;;11.71;84.43;100525.88;5049048;28;20033;-71
2022/09/19 05:36:19;;;;;;;2.65;1.75;;;;;;;11.63;82.49;100494.59;5049064;28;20104;-69
2022/09/19 05:38:46;;;;;;;2.67;1.90;;;;;;;11.82;82.80;100534.00;5030571;28;20032;-72
2022/09/19 05:41:11;;;;;;;5.78;2.28;;;;;;;11.56;82.07;100484.03;5047890;28;20044;-72
2022/09/19 05:43:37;;;;;;;3.72;1.77;;;;;;;11.87;82.43;100527.28;5048263;28;20418;-71
2022/09/19 05:46:02;;;;;;;3.13;1.73;;;;;;;11.97;82.33;100519.03;5048908;28;20126;-73
2022/09/19 05:48:29;;;;;;;4.20;2.45;;;;;;;12.12;82.35;100520.34;5048540;28;20491;-73
2022/09/19 05:50:55;;;;;;;4.63;1.90;;;;;;;12.07;80.33;100486.53;5048535;28;20025;-72
2022/09/19 05:56:06;;;;;;;5.78;3.20;;;;;;;12.40;79.83;100524.66;5049508;28;20426;-70
2022/09/19 05:58:33;;;;;;;6.90;2.10;;;;;;;12.37;79.97;100492.63;5049442;28;20028;-71
2022/09/19 06:01:03;;;;;;;3.35;1.92;;;;;;;12.58;80.00;100523.44;5049224;28;20060;-71
2022/09/19 06:03:28;;;;;;;2.88;1.73;;;;;;;12.52;78.77;100481.84;5031273;28;20078;-69
2022/09/19 06:05:55;;;;;;;1.92;1.63;;;;;;;12.81;78.31;100512.88;5049180;28;20443;-70
2022/09/19 06:08:22;;;;;;;6.03;1.50;;;;;;;12.94;77.92;100517.56;5049535;28;20033;-70
2022/09/19 06:10:48;;;;;;;2.90;1.70;;;;;;;12.91;77.14;100482.09;5049454;28;20021;-70
2022/09/19 06:13:22;;;;;;;4.40;1.52;;;;;;;13.10;77.10;100513.69;5048735;28;20450;-70
2022/09/19 06:15:47;;;;;;;3.05;1.52;;;;;;;13.29;76.37;100520.25;5029837;28;20080;-72
2022/09/19 06:18:13;;;;;;;2.13;1.55;;;;;;;13.43;75.71;100524.13;5049033;28;20056;-72
2022/09/19 06:20:40;;;;;;;2.72;1.60;;;;;;;13.33;77.80;100526.41;5049166;28;20398;-70
2022/09/19 06:23:07;;;;;;;3.17;1.80;;;;;;;13.48;76.62;100525.94;5048590;28;20033;-73
2022/09/19 06:25:35;;;;;;;3.17;1.50;;;;;;;13.61;74.80;100522.84;5048184;28;20116;-69
2022/09/19 06:28:04;;;;;;;4.20;1.85;;;;;;;13.33;73.72;100524.66;5050275;28;20040;-70
2022/09/19 06:30:30;;;;;;;2.78;1.50;;;;;;;13.25;74.19;100532.25;4995565;28;20453;-73
2022/09/19 06:32:56;;;;;;;2.70;1.50;;;;;;;13.34;72.63;100517.78;5050163;28;20052;-74
2022/09/19 06:35:23;;;;;;;2.45;1.48;;;;;;;13.57;72.38;100527.06;5049463;28;20037;-72
2022/09/19 06:37:49;;;;;;;2.75;1.40;;;;;;;13.39;72.26;100457.44;5045196;28;20025;-72
2022/09/19 06:40:21;;;;;;;2.13;1.30;;;;;;;13.97;69.45;100529.78;5015058;28;20499;-72
2022/09/19 06:42:46;;;;;;;2.38;1.42;;;;;;;13.98;70.64;100523.75;5046866;28;20048;-69
2022/09/19 06:45:11;;;;;;;2.75;1.42;;;;;;;13.79;70.33;100456.69;5049452;28;20032;-74
2022/09/19 06:47:37;;;;;;;2.30;1.50;;;;;;;14.40;68.35;100522.09;5049645;28;20021;-73
2022/09/19 06:50:03;;;;;;;1.83;1.20;;;;;;;14.33;67.21;100521.09;5049012;28;20119;-74
2022/09/19 06:52:29;;;;;;;3.25;1.20;;;;;;;14.33;68.46;100520.19;5049090;28;20025;-72
2022/09/19 06:54:55;;;;;;;5.43;1.67;;;;;;;14.30;67.72;100520.13;5048796;28;20040;-71
2022/09/19 06:57:20;;;;;;;1.60;1.20;;;;;;;14.36;69.46;100523.75;5049012;28;20025;-70
2022/09/19 06:59:46;;;;;;;6.75;1.42;;;;;;;14.77;67.47;100522.06;5048485;28;20025;-74
2022/09/19 07:02:12;;;;;;;2.45;1.38;;;;;;;14.93;66.03;100524.09;5049323;28;20454;-73
2022/09/19 07:04:37;;;;;;;5.28;1.88;;;;;;;15.21;65.26;100519.44;5049430;28;20114;-70
2022/09/19 07:07:03;;;;;;;2.22;1.35;;;;;;;15.50;63.19;100526.88;5048768;28;20636;-72
2022/09/19 07:09:29;;;;;;;2.10;1.20;;;;;;;15.60;62.70;100515.81;5049320;28;20090;-70
2022/09/19 07:11:56;;;;;;;3.85;1.33;;;;;;;15.70;63.06;100522.00;5031248;28;20032;-70
2022/09/19 07:14:23;;;;;;;1.95;1.50;;;;;;;15.78;63.18;100522.16;5046253;28;20032;-71
2022/09/19 07:16:48;;;;;;;4.10;1.60;;;;;;;15.94;63.54;100528.53;5049725;28;20037;-71
2022/09/19 07:19:15;;;;;;;3.10;1.40;;;;;;;15.90;64.10;100526.72;5049885;28;20475;-71
2022/09/19 07:21:41;;;;;;;2.05;1.20;;;;;;;16.11;61.44;100532.28;5049504;28;20053;-71
2022/09/19 07:24:07;;;;;;;4.13;1.25;;;;;;;16.21;61.35;100514.16;5051966;28;20138;-71
2022/09/19 07:26:33;;;;;;;1.42;1.20;;;;;;;16.51;60.71;100524.16;5053400;28;20040;-68
2022/09/19 07:28:58;;;;;;;3.63;1.40;;;;;;;16.65;62.40;100519.13;5053148;28;20076;-70
2022/09/19 07:31:26;;;;;;;3.63;1.80;;;;;;;16.21;60.22;100485.50;5053373;28;20060;-71
2022/09/19 07:33:51;;;;;;;2.60;1.52;;;;;;;16.50;61.45;100527.63;5053170;28;20036;-68
2022/09/19 07:36:21;;;;;;;3.00;1.20;;;;;;;16.56;60.16;100516.38;5053149;28;20466;-70
2022/09/19 07:38:48;;;;;;;2.67;1.20;;;;;;;16.61;61.66;100522.53;5053030;28;20029;-69
2022/09/19 07:41:14;;;;;;;1.95;1.20;;;;;;;16.75;62.54;100515.75;5052833;28;20060;-70
2022/09/19 07:43:40;;;;;;;3.42;1.13;;;;;;;17.03;59.07;100520.47;5052843;28;20021;-69
2022/09/19 07:46:06;;;;;;;4.50;1.13;;;;;;;16.80;58.99;100521.03;5052986;28;20478;-68
2022/09/19 07:48:31;;;;;;;4.38;1.10;;;;;;;16.93;60.19;100509.91;5052696;28;20021;-69
2022/09/19 07:50:57;;;;;;;1.55;0.85;;;;;;;17.08;58.51;100516.19;5033901;28;20106;-71
2022/09/19 07:53:23;;;;;;;2.97;1.20;;;;;;;16.90;57.56;100472.50;5049298;28;20035;-70
2022/09/19 07:55:54;;;;;;;1.50;1.13;;;;;;;16.91;56.54;100516.88;5052634;28;20044;-75
2022/09/19 07:58:23;;;;;;;1.77;1.20;;;;;;;17.05;56.59;100509.19;5052758;28;20495;-69
2022/09/19 08:00:49;;;;;;;0.90;0.90;;;;;;;16.91;61.60;100509.03;5052763;28;20025;-72
2022/09/19 08:03:16;;;;;;;3.15;1.20;;;;;;;16.87;57.49;100511.56;5052414;28;20110;-72
2022/09/19 08:05:44;;;;;;;1.38;1.10;;;;;;;16.80;55.88;100506.25;5052414;28;20039;-70
2022/09/19 08:08:11;;;;;;;2.03;1.00;;;;;;;16.84;57.69;100503.72;5052319;28;20033;-69
2022/09/19 08:10:39;;;;;;;1.30;0.93;;;;;;;16.84;56.08;100495.88;5052379;28;20055;-69
2022/09/19 08:13:06;;;;;;;1.65;0.85;;;;;;;16.96;55.28;100504.75;5052297;28;20027;-73
2022/09/19 08:15:33;;;;;;;2.25;1.08;;;;;;;17.06;54.62;100460.50;5052244;28;20108;-69
2022/09/19 08:18:21;;;;;;;3.30;1.00;;;;;;;17.59;55.23;100490.56;5052230;28;20035;-69
2022/09/19 08:20:48;;;;;;;1.90;1.13;;;;;;;17.65;52.59;100485.41;5051848;28;20043;-72
2022/09/19 08:23:16;;;;;;;2.53;1.05;;;;;;;17.85;53.27;100479.47;5016387;28;20040;-70
2022/09/19 08:25:46;;;;;;;2.63;1.10;;;;;;;18.05;55.56;100474.41;5052360;28;20029;-70
2022/09/19 08:28:13;;;;;;;3.20;1.50;;;;;;;18.18;55.89;100473.63;5051937;28;20032;-71
2022/09/19 08:30:42;;;;;;;2.60;1.20;;;;;;;18.33;54.83;100472.84;5052041;28;20733;-73
2022/09/19 08:33:08;;;;;;;1.02;0.90;;;;;;;18.49;49.70;100459.81;5051685;28;20462;-72
2022/09/19 08:35:37;;;;;;;1.25;1.00;;;;;;;18.62;48.63;100458.13;5051143;28;20032;-72
2022/09/19 08:38:04;;;;;;;3.17;1.20;;;;;;;18.56;48.42;100453.75;5051861;28;20032;-77
2022/09/19 08:40:34;;;;;;;1.58;0.90;;;;;;;18.66;48.08;100455.53;5051678;28;20084;-74
2022/09/19 08:43:06;;;;;;;2.63;1.10;;;;;;;18.64;43.14;100454.66;5051648;28;20052;-72
2022/09/19 08:45:59;;;;;;;2.25;1.00;;;;;;;18.73;46.55;100446.84;5051767;28;20098;-70
2022/09/19 08:48:32;;;;;;;0.85;0.60;;;;;;;18.78;40.50;100406.75;5051807;28;20472;-73
2022/09/19 08:51:06;;;;;;;2.15;1.00;;;;;;;19.15;41.21;100438.22;5051578;28;20128;-73
2022/09/19 08:53:40;;;;;;;0.80;0.80;;;;;;;19.35;37.90;100422.53;5051470;28;20470;-72
2022/09/19 08:56:06;;;;;;;3.63;0.80;;;;;;;19.49;37.59;100418.19;5033806;28;20044;-72
2022/09/19 08:58:36;;;;;;;1.27;0.80;;;;;;;19.25;36.64;100419.03;5051621;28;20053;-71
2022/09/19 09:01:07;;;;;;;1.45;0.80;;;;;;;19.50;34.75;100411.19;5051330;28;20108;-73
2022/09/19 09:04:06;;;;;;;1.88;0.93;;;;;;;19.73;39.67;100409.41;5051410;28;20025;-72
2022/09/19 09:06:31;;;;;;;3.10;0.80;;;;;;;19.72;37.30;100376.22;5033438;28;20029;-72
2022/09/19 09:08:56;;;;;;;1.65;0.80;;;;;;;20.04;36.03;100398.88;5050952;28;20040;-71
2022/09/19 09:11:53;;;;;;;1.25;0.70;;;;;;;20.12;35.17;100401.47;5051152;28;20040;-73
2022/09/19 09:14:25;;;;;;;1.58;0.80;;;;;;;20.18;35.04;100398.84;5051313;28;20044;-78
2022/09/19 09:17:08;;;;;;;3.38;0.93;;;;;;;20.34;33.46;100398.78;5051082;28;20052;-73
2022/09/19 09:19:39;;;;;;;1.52;1.00;;;;;;;20.60;34.76;100387.28;5051219;28;20495;-70
2022/09/19 09:22:31;;;;;;;2.72;1.10;;;;;;;20.76;32.83;100388.97;5050401;28;20064;-71
2022/09/19 09:25:11;;;;;;;1.95;0.90;;;;;;;20.49;35.33;100380.34;5051058;28;20033;-73
2022/09/19 09:27:53;;;;;;;3.00;1.10;;;;;;;20.75;35.10;100381.97;5050663;28;20040;-69
2022/09/19 09:30:19;;;;;;;0.82;0.80;;;;;;;21.04;37.33;100372.16;5034834;28;20540;-69
2022/09/19 09:33:05;;;;;;;1.00;0.90;;;;;;;20.98;37.44;100328.47;5050828;28;20033;-72
2022/09/19 09:35:35;;;;;;;2.15;0.95;;;;;;;21.20;33.05;100338.75;5050957;28;20032;-69
2022/09/19 09:38:30;;;;;;;0.77;0.77;;;;;;;21.42;34.11;100357.81;5050450;28;20407;-70
2022/09/19 09:43:55;;;;;;;1.13;0.70;;;;;;;21.25;29.72;100356.22;5050381;28;20087;-69
2022/09/19 09:46:29;;;;;;;0.95;0.70;;;;;;;21.44;29.15;100350.81;5050613;28;20033;-71
2022/09/19 09:48:55;;;;;;;2.63;1.15;;;;;;;21.59;30.10;100349.81;5050418;28;20467;-70
2022/09/19 09:51:20;;;;;;;2.55;1.27;;;;;;;21.73;29.11;100355.81;5050507;28;20036;-71
2022/09/19 09:54:05;;;;;;;7.85;3.65;;;;;;;21.89;28.15;100350.34;5050556;28;20108;-69
2022/09/19 09:56:51;;;;;;;0.75;0.63;;;;;;;21.93;31.81;100345.06;5047627;28;20041;-72
2022/09/19 10:05:36;;;;;;;1.65;0.90;;;;;;;21.95;29.96;100326.63;5032304;28;20132;-74
2022/09/19 10:08:18;;;;;;;2.67;1.02;;;;;;;21.91;29.14;100286.38;5030354;28;20026;-70
2022/09/19 10:10:45;;;;;;;0.60;0.60;;;;;;;22.22;28.45;100340.28;5030375;28;20044;-72
2022/09/19 10:13:40;;;;;;;1.00;0.70;;;;;;;22.28;28.32;100337.59;5049339;28;20453;-71
2022/09/19 10:16:06;;;;;;;1.15;0.90;;;;;;;22.54;27.12;100341.66;5005498;28;20080;-70
2022/09/19 10:18:49;;;;;;;2.83;1.10;;;;;;;22.59;25.91;100335.44;5004984;28;20045;-69
2022/09/19 10:21:14;;;;;;;1.02;0.85;;;;;;;22.21;25.67;100335.94;5007960;28;20172;-74
2022/09/19 10:23:45;;;;;;;1.20;0.75;;;;;;;22.45;24.36;100326.88;5007531;28;20038;-69
2022/09/19 10:26:16;;;;;;;1.15;0.70;;;;;;;22.68;24.74;100331.81;5007698;28;20124;-73
2022/09/19 10:28:54;;;;;;;1.10;0.90;;;;;;;22.64;27.44;100324.81;5007394;28;20049;-71
2022/09/19 10:31:24;;;;;;;1.08;0.77;;;;;;;22.70;26.00;100326.50;5005042;28;20033;-73
2022/09/19 10:33:50;;;;;;;1.85;0.98;;;;;;;22.90;26.22;100310.38;5007643;28;20064;-72
2022/09/19 10:36:25;;;;;;;1.02;0.80;;;;;;;23.03;26.26;100308.41;5007405;28;20031;-72
2022/09/19 10:38:59;;;;;;;1.17;0.77;;;;;;;23.07;24.57;100304.84;5007566;28;20398;-70
2022/09/19 10:41:27;;;;;;;1.27;0.70;;;;;;;23.21;25.69;100297.59;5007372;28;20107;-70
2022/09/19 10:43:56;;;;;;;4.20;0.80;;;;;;;23.30;25.80;100299.19;5006097;28;20041;-72
2022/09/19 10:46:35;;;;;;;1.00;0.70;;;;;;;23.43;25.85;100286.66;5009676;28;20572;-74
2022/09/19 10:49:05;;;;;;;1.98;1.08;;;;;;;23.51;26.29;100286.50;5007330;28;20293;-70
2022/09/19 10:51:33;;;;;;;;;;;;;;;23.41;27.26;100288.44;5010212;28;20038;-73
2022/09/19 10:54:00;;;;;;;1.65;0.85;;;;;;;23.37;25.92;100258.66;5047228;28;19912;-73
2022/09/19 10:56:29;;;;;;;0.68;0.68;;;;;;;23.39;27.33;100274.44;5049720;28;20051;-70
2022/09/19 10:59:06;;;;;;;2.22;0.90;;;;;;;23.61;26.94;100268.75;5052195;28;20040;-75
2022/09/19 11:01:32;;;;;;;0.82;0.80;;;;;;;23.71;26.68;100260.66;5053510;28;20124;-71
2022/09/19 11:04:21;;;;;;;1.15;0.90;;;;;;;23.81;27.43;100270.97;5052977;28;20108;-74
2022/09/19 11:07:01;;;;;;;;;;;;;;;23.31;26.72;100260.56;5053810;28;20039;-71
2022/09/19 11:09:37;;;;;;;1.95;0.93;;;;;;;23.10;27.30;100253.00;5053217;28;19962;-69
2022/09/19 11:12:09;;;;;;;1.10;0.88;;;;;;;23.54;26.93;100254.81;5053309;28;20029;-74
2022/09/19 11:14:40;;;;;;;0.80;0.80;;;;;;;23.68;26.60;100249.28;5052904;28;20514;-71
2022/09/19 11:17:18;;;;;;;0.95;0.80;;;;;;;23.51;26.62;100226.75;5053048;28;20024;-72
2022/09/19 11:19:53;;;;;;;1.33;0.90;;;;;;;24.04;26.93;100249.44;5035245;28;20033;-71
2022/09/19 11:22:41;;;;;;;3.22;0.90;;;;;;;24.05;27.10;100243.22;5053091;28;20037;-72
2022/09/19 11:25:30;;;;;;;1.23;0.70;;;;;;;23.67;27.02;100234.38;5039871;28;20503;-68
2022/09/19 11:28:14;;;;;;;2.10;0.88;;;;;;;23.55;27.10;100239.00;5053014;28;20032;-71
2022/09/19 11:31:06;;;;;;;1.00;0.90;;;;;;;23.77;26.98;100219.22;5052944;28;20033;-68
2022/09/19 11:33:43;;;;;;;1.73;0.88;;;;;;;23.56;27.34;100224.03;5052284;28;20029;-71
2022/09/19 11:36:27;;;;;;;1.17;0.80;;;;;;;23.84;27.66;100226.97;5053147;28;20084;-69
2022/09/19 11:39:03;;;;;;;2.05;1.10;;;;;;;24.19;26.69;100222.69;5052535;28;20025;-69
2022/09/19 11:41:35;;;;;;;1.27;0.95;;;;;;;24.34;26.60;100216.19;5052409;28;20084;-69
2022/09/19 11:44:09;;;;;;;1.45;1.02;;;;;;;24.42;26.46;100209.84;5038883;28;20033;-70
2022/09/19 11:46:49;;;;;;;3.13;1.00;;;;;;;24.37;28.42;100197.66;5052397;28;20499;-68
2022/09/19 11:49:31;;;;;;;1.08;0.95;;;;;;;24.42;26.10;100171.13;5034480;28;20407;-70
2022/09/19 11:52:09;;;;;;;1.77;1.02;;;;;;;24.29;26.43;100183.78;5052691;28;20104;-71
2022/09/19 11:54:34;;;;;;;0.90;0.90;;;;;;;24.38;26.12;100199.38;5034473;28;20428;-69
2022/09/19 11:57:12;;;;;;;3.13;1.17;;;;;;;24.18;26.64;100169.97;5052357;28;20033;-70
2022/09/19 12:00:12;;;;;;;1.77;0.93;;;;;;;24.30;27.04;100190.78;5052043;28;20075;-72
2022/09/19 12:03:10;;;;;;;2.00;1.00;;;;;;;24.22;27.12;100187.47;5052286;28;20086;-72